Time;durP1;ratioP1;P1;durP2;ratioP2;P2;SDS_P1;SDS_P2;PMS_P1;PMS_P2;Temp;Humidity;BMP_temperature;BMP_pressure;BME280_temperature;BME280_humidity;BME280_pressure;Samples;Min_cycle;Max_cycle;Signal;HPM_P1;HPM_P2
2023/03/20 00:00:16;;;;;;;6.07;4.45;;;9.80;81.00;;;;;;5014401;28;20037;-81
2023/03/20 00:02:42;;;;;;;;;;;9.90;81.20;;;;;;5022929;28;20040;-79
2023/03/20 00:05:17;;;;;;;5.68;3.45;;;9.80;80.90;;;;;;5031563;28;19975;-79
2023/03/20 00:07:43;;;;;;;3.38;2.83;;;9.90;81.00;;;;;;5015098;28;20044;-80
2023/03/20 00:10:09;;;;;;;7.15;3.38;;;9.90;81.00;;;;;;5001149;28;20056;-79
2023/03/20 00:12:35;;;;;;;4.25;2.70;;;9.80;81.00;;;;;;5017670;28;20117;-78
2023/03/20 00:15:01;;;;;;;4.47;2.42;;;9.80;81.10;;;;;;4987144;28;20132;-80
2023/03/20 00:17:26;;;;;;;3.90;2.55;;;9.80;81.10;;;;;;5003144;28;20033;-79
2023/03/20 00:19:52;;;;;;;5.05;2.40;;;9.80;81.30;;;;;;5031812;28;20036;-78
2023/03/20 00:22:17;;;;;;;6.85;3.00;;;9.70;81.30;;;;;;5030943;28;20495;-79
2023/03/20 00:24:43;;;;;;;3.30;2.40;;;9.70;81.30;;;;;;5014613;28;20040;-79
2023/03/20 00:27:13;;;;;;;3.03;2.55;;;9.70;81.50;;;;;;5026488;28;20099;-79
2023/03/20 00:29:38;;;;;;;3.35;2.20;;;9.70;81.70;;;;;;5017160;28;20045;-78
2023/03/20 00:32:04;;;;;;;5.10;2.70;;;9.70;81.60;;;;;;5039041;28;20050;-78
2023/03/20 00:34:31;;;;;;;3.33;2.33;;;9.70;81.70;;;;;;5000016;28;20088;-80
2023/03/20 00:36:56;;;;;;;3.72;2.28;;;9.60;81.70;;;;;;5028624;28;20165;-80
2023/03/20 00:39:22;;;;;;;5.28;2.03;;;9.60;81.70;;;;;;5020766;28;20033;-77
2023/03/20 00:41:52;;;;;;;4.13;2.38;;;9.70;81.80;;;;;;5012903;28;20044;-80
2023/03/20 00:44:31;;;;;;;4.30;2.53;;;9.70;81.90;;;;;;5020796;28;20029;-78
2023/03/20 00:47:02;;;;;;;4.07;2.30;;;9.60;81.90;;;;;;5019179;28;20029;-80
2023/03/20 00:49:31;;;;;;;4.82;1.95;;;9.60;81.90;;;;;;5007139;28;20508;-79
2023/03/20 00:51:57;;;;;;;3.47;2.30;;;9.60;81.90;;;;;;4989737;28;20060;-79
2023/03/20 00:54:22;;;;;;;3.17;2.22;;;9.60;81.90;;;;;;5006699;28;20112;-79
2023/03/20 00:56:51;;;;;;;2.60;2.00;;;9.60;81.90;;;;;;5026776;28;20052;-78
2023/03/20 00:59:18;;;;;;;3.63;2.00;;;9.60;81.90;;;;;;5027150;28;20684;-78
2023/03/20 01:01:44;;;;;;;2.30;2.00;;;9.60;81.90;;;;;;4987387;28;20087;-80
2023/03/20 01:04:15;;;;;;;6.57;2.60;;;9.60;81.90;;;;;;5001021;28;20032;-80
2023/03/20 01:06:41;;;;;;;4.38;3.08;;;9.60;82.00;;;;;;5005792;28;20033;-78
2023/03/20 01:09:06;;;;;;;6.18;2.55;;;9.60;82.00;;;;;;5021301;28;20808;-79
2023/03/20 01:11:32;;;;;;;3.22;2.20;;;9.60;82.00;;;;;;5025607;28;20543;-78
2023/03/20 01:13:57;;;;;;;6.05;2.63;;;9.60;82.10;;;;;;5020779;28;20057;-80
2023/03/20 01:16:24;;;;;;;3.53;3.10;;;9.50;82.00;;;;;;5019274;28;20053;-80
2023/03/20 01:18:50;;;;;;;3.63;2.60;;;9.60;82.10;;;;;;4998381;28;20122;-79
2023/03/20 01:21:16;;;;;;;3.45;2.60;;;9.60;82.20;;;;;;5016168;28;20053;-81
2023/03/20 01:23:41;;;;;;;4.38;2.67;;;9.50;82.20;;;;;;5021214;28;20569;-79
2023/03/20 01:26:29;;;;;;;3.40;2.50;;;9.50;82.30;;;;;;5016259;28;20116;-80
2023/03/20 01:28:54;;;;;;;3.45;2.40;;;9.50;82.70;;;;;;5028972;28;20044;-79
2023/03/20 01:31:20;;;;;;;3.53;2.28;;;9.50;82.40;;;;;;5026600;28;20045;-79
2023/03/20 01:33:45;;;;;;;4.10;2.30;;;9.50;82.40;;;;;;5012851;28;20043;-80
2023/03/20 01:36:16;;;;;;;2.83;2.10;;;9.50;82.50;;;;;;4994913;28;20041;-76
2023/03/20 01:38:41;;;;;;;4.50;2.35;;;9.40;82.50;;;;;;5011984;28;20123;-79
2023/03/20 01:41:15;;;;;;;2.38;2.10;;;9.40;82.60;;;;;;4993348;28;20053;-78
2023/03/20 01:43:41;;;;;;;4.88;2.30;;;9.40;82.70;;;;;;4998461;28;20052;-80
2023/03/20 01:46:22;;;;;;;3.13;2.33;;;9.40;82.60;;;;;;4990073;28;20037;-78
2023/03/20 01:48:56;;;;;;;2.75;2.33;;;9.40;82.70;;;;;;5020803;28;20043;-79
2023/03/20 01:51:31;;;;;;;2.78;2.17;;;9.40;82.70;;;;;;5014337;28;20042;-79
2023/03/20 01:54:09;;;;;;;4.18;2.22;;;9.40;82.90;;;;;;4996055;28;20041;-80
2023/03/20 01:56:38;;;;;;;3.67;2.08;;;9.40;82.90;;;;;;5015737;28;20052;-77
2023/03/20 01:59:12;;;;;;;2.40;2.05;;;9.40;82.80;;;;;;5000385;28;20041;-79
2023/03/20 02:01:37;;;;;;;5.40;1.83;;;9.30;82.90;;;;;;5015949;28;20105;-79
2023/03/20 02:04:03;;;;;;;3.72;1.65;;;9.40;82.90;;;;;;5016725;28;20045;-79
2023/03/20 02:06:28;;;;;;;3.38;2.58;;;9.40;82.80;;;;;;5013767;28;20044;-79
2023/03/20 02:08:54;;;;;;;2.80;2.30;;;9.30;82.90;;;;;;4984153;28;20041;-80
2023/03/20 02:11:22;;;;;;;3.17;2.08;;;9.40;83.00;;;;;;5019173;28;20041;-79
2023/03/20 02:13:48;;;;;;;2.28;1.85;;;9.30;83.10;;;;;;4999554;28;20048;-79
2023/03/20 02:16:15;;;;;;;3.05;2.10;;;9.30;83.20;;;;;;4982813;28;20475;-79
2023/03/20 02:18:42;;;;;;;3.55;2.30;;;9.30;83.30;;;;;;4984983;28;20037;-79
2023/03/20 02:21:29;;;;;;;3.35;1.90;;;9.30;83.50;;;;;;5013522;28;20045;-79
2023/03/20 02:24:08;;;;;;;3.00;1.95;;;9.40;83.90;;;;;;5022255;28;20038;-79
2023/03/20 02:26:58;;;;;;;2.45;1.80;;;9.30;83.40;;;;;;4997613;28;20030;-78
2023/03/20 02:29:41;;;;;;;2.88;2.15;;;9.40;83.60;;;;;;4987419;28;20048;-80
2023/03/20 02:32:28;;;;;;;3.35;1.95;;;9.40;83.70;;;;;;5015014;28;20037;-79
2023/03/20 02:35:16;;;;;;;3.00;2.10;;;9.40;83.50;;;;;;5016631;28;20030;-79
2023/03/20 02:37:50;;;;;;;3.03;2.17;;;9.30;83.40;;;;;;5018733;28;20053;-81
2023/03/20 02:40:27;;;;;;;4.70;2.78;;;9.30;83.20;;;;;;5014148;28;20560;-78
2023/03/20 02:43:09;;;;;;;4.10;2.15;;;9.40;83.30;;;;;;5029480;28;20030;-77
2023/03/20 02:45:52;;;;;;;4.28;2.63;;;9.40;83.40;;;;;;5023271;28;20036;-78
2023/03/20 02:48:36;;;;;;;3.38;2.53;;;9.40;83.30;;;;;;5019633;28;20036;-79
2023/03/20 02:51:11;;;;;;;2.42;1.90;;;9.40;83.30;;;;;;5021051;28;20033;-79
2023/03/20 02:53:59;;;;;;;4.70;2.20;;;9.40;83.30;;;;;;5002010;28;20060;-79
2023/03/20 02:57:03;;;;;;;2.72;1.90;;;9.40;83.60;;;;;;5030871;28;20037;-80
2023/03/20 02:59:42;;;;;;;4.30;2.50;;;9.30;83.40;;;;;;4961111;28;20027;-78
2023/03/20 03:02:15;;;;;;;2.00;1.80;;;9.40;83.50;;;;;;4958520;28;20156;-80
2023/03/20 03:04:46;;;;;;;2.40;2.20;;;9.30;83.30;;;;;;4960682;28;20031;-78
2023/03/20 03:07:12;;;;;;;3.55;1.88;;;9.30;83.30;;;;;;4940908;28;20573;-78
2023/03/20 03:09:45;;;;;;;3.72;2.78;;;9.30;83.30;;;;;;4973175;28;20105;-79
2023/03/20 03:12:16;;;;;;;2.95;2.22;;;9.30;83.40;;;;;;4962693;28;20484;-80
2023/03/20 03:14:47;;;;;;;2.63;2.42;;;9.30;83.50;;;;;;4975361;28;20177;-79
2023/03/20 03:17:13;;;;;;;4.22;2.08;;;9.30;83.50;;;;;;4946644;28;20130;-78
2023/03/20 03:19:40;;;;;;;3.33;2.60;;;9.30;83.50;;;;;;4946766;28;20121;-78
2023/03/20 03:22:06;;;;;;;3.67;1.63;;;9.30;83.50;;;;;;4973018;28;20053;-79
2023/03/20 03:24:37;;;;;;;3.22;1.80;;;9.30;83.50;;;;;;4944200;28;20042;-77
2023/03/20 03:27:06;;;;;;;2.87;2.13;;;9.30;83.60;;;;;;4967863;28;20073;-79
2023/03/20 03:29:34;;;;;;;3.60;1.85;;;9.30;83.50;;;;;;4959879;28;20157;-80
2023/03/20 03:32:01;;;;;;;3.95;1.77;;;9.30;83.50;;;;;;4974445;28;20112;-78
2023/03/20 03:34:26;;;;;;;4.43;2.25;;;9.30;83.60;;;;;;5024111;28;20038;-79
2023/03/20 03:37:01;;;;;;;2.58;2.25;;;9.30;83.70;;;;;;5007195;28;20116;-77
2023/03/20 03:39:42;;;;;;;3.67;2.40;;;9.30;83.80;;;;;;5028824;28;20095;-80
2023/03/20 03:42:30;;;;;;;3.10;2.28;;;9.30;83.90;;;;;;4998540;28;20037;-79
2023/03/20 03:45:16;;;;;;;3.15;2.03;;;9.30;84.00;;;;;;5022402;28;20039;-78
2023/03/20 03:48:05;;;;;;;2.80;2.20;;;9.30;83.90;;;;;;5031627;28;20053;-80
2023/03/20 03:50:39;;;;;;;2.42;1.85;;;9.30;83.80;;;;;;5016148;28;20411;-80
2023/03/20 03:53:09;;;;;;;2.63;1.58;;;9.30;83.70;;;;;;4986185;28;20065;-80
2023/03/20 03:55:38;;;;;;;3.50;1.90;;;9.30;83.80;;;;;;5017683;28;20112;-78
2023/03/20 03:58:16;;;;;;;2.72;2.15;;;9.30;83.90;;;;;;5029452;28;20140;-79
2023/03/20 04:00:42;;;;;;;3.70;2.38;;;9.30;83.90;;;;;;5015853;28;20436;-79
2023/03/20 04:03:08;;;;;;;2.08;1.75;;;9.30;84.00;;;;;;5025830;28;20037;-79
2023/03/20 04:05:34;;;;;;;1.73;1.63;;;9.30;84.10;;;;;;5015367;28;20037;-80
2023/03/20 04:08:00;;;;;;;2.75;2.25;;;9.30;84.00;;;;;;5001566;28;20040;-80
2023/03/20 04:10:26;;;;;;;4.85;2.60;;;9.30;84.00;;;;;;5020370;28;20044;-79
2023/03/20 04:12:51;;;;;;;4.70;2.40;;;9.30;84.00;;;;;;5017121;28;20041;-81
2023/03/20 04:15:17;;;;;;;2.58;2.20;;;9.30;84.10;;;;;;5018149;28;20033;-79
2023/03/20 04:17:43;;;;;;;3.33;2.45;;;9.30;84.10;;;;;;5030579;28;20109;-77
2023/03/20 04:20:11;;;;;;;4.70;2.42;;;9.30;84.10;;;;;;5014185;28;20049;-79
2023/03/20 04:22:36;;;;;;;3.17;2.28;;;9.30;84.90;;;;;;5024943;28;20080;-80
2023/03/20 04:25:05;;;;;;;3.75;2.70;;;9.30;84.10;;;;;;5023775;28;20064;-79
2023/03/20 04:27:31;;;;;;;3.42;2.33;;;9.30;84.20;;;;;;5013610;28;20049;-78
2023/03/20 04:29:56;;;;;;;6.65;2.80;;;9.30;84.20;;;;;;5014164;28;20580;-78
2023/03/20 04:32:22;;;;;;;3.50;2.90;;;9.30;84.20;;;;;;5034851;28;20538;-78
2023/03/20 04:34:48;;;;;;;2.22;2.03;;;9.30;84.30;;;;;;5019893;28;20094;-79
2023/03/20 04:37:13;;;;;;;2.47;2.17;;;9.20;84.30;;;;;;5016477;28;20313;-78
2023/03/20 04:39:41;;;;;;;4.65;2.30;;;9.20;84.20;;;;;;5015549;28;20675;-79
2023/03/20 04:42:07;;;;;;;4.15;2.38;;;9.30;84.50;;;;;;5009486;28;20098;-79
2023/03/20 04:44:32;;;;;;;2.63;2.13;;;9.20;84.50;;;;;;4998301;28;20666;-77
2023/03/20 04:46:58;;;;;;;2.63;2.00;;;9.20;84.60;;;;;;5014753;28;20137;-79
2023/03/20 04:49:23;;;;;;;3.75;2.42;;;9.20;84.60;;;;;;5013762;28;20048;-79
2023/03/20 04:51:49;;;;;;;3.65;2.28;;;9.20;84.70;;;;;;5014442;28;20050;-78
2023/03/20 04:54:15;;;;;;;4.47;1.95;;;9.20;84.70;;;;;;5015897;28;20029;-80
2023/03/20 04:56:40;;;;;;;2.70;1.80;;;9.20;84.80;;;;;;5017116;28;20058;-79
2023/03/20 04:59:06;;;;;;;16.55;14.95;;;9.20;84.80;;;;;;4999100;28;20048;-78
2023/03/20 05:01:31;;;;;;;3.90;3.53;;;9.20;84.80;;;;;;4996476;28;20061;-79
2023/03/20 05:03:59;;;;;;;5.40;2.88;;;9.20;84.80;;;;;;4985759;28;20041;-79
2023/03/20 05:06:28;;;;;;;3.13;2.70;;;9.20;84.80;;;;;;5015091;28;20044;-79
2023/03/20 05:08:53;;;;;;;3.45;3.10;;;9.20;84.80;;;;;;5003184;28;20041;-79
2023/03/20 05:11:19;;;;;;;4.40;3.03;;;9.20;84.80;;;;;;5003103;28;20042;-79
2023/03/20 05:13:45;;;;;;;2.92;2.40;;;9.30;84.90;;;;;;5001410;28;20275;-79
2023/03/20 05:16:10;;;;;;;2.72;2.40;;;9.30;84.80;;;;;;4983430;28;20037;-78
2023/03/20 05:18:36;;;;;;;7.25;2.88;;;9.30;84.70;;;;;;5000479;28;20042;-78
2023/03/20 05:21:01;;;;;;;2.83;2.58;;;9.30;84.60;;;;;;5017068;28;20041;-81
2023/03/20 05:23:27;;;;;;;3.30;3.00;;;9.30;84.60;;;;;;5016143;28;20037;-79
2023/03/20 05:25:52;;;;;;;4.30;2.85;;;9.30;84.70;;;;;;5003364;28;20041;-77
2023/03/20 05:28:18;;;;;;;3.00;2.45;;;9.30;84.80;;;;;;5001166;28;20112;-80
2023/03/20 05:30:43;;;;;;;6.45;2.92;;;9.30;84.80;;;;;;5003483;28;20042;-80
2023/03/20 05:33:09;;;;;;;2.85;2.50;;;9.30;84.80;;;;;;5021840;28;20087;-80
2023/03/20 05:35:34;;;;;;;3.03;2.38;;;9.30;84.80;;;;;;5021981;28;20040;-79
2023/03/20 05:38:00;;;;;;;5.90;2.80;;;9.30;84.70;;;;;;4988669;28;20042;-81
2023/03/20 05:40:25;;;;;;;6.53;2.47;;;9.30;84.60;;;;;;4981631;28;20034;-81
2023/03/20 05:42:51;;;;;;;4.43;3.15;;;9.30;84.60;;;;;;4967886;28;20066;-79
2023/03/20 05:45:17;;;;;;;3.70;2.50;;;9.30;84.60;;;;;;4979494;28;20034;-79
2023/03/20 05:47:43;;;;;;;2.97;2.60;;;9.30;84.70;;;;;;5008758;28;20041;-80
2023/03/20 05:50:10;;;;;;;4.68;2.85;;;9.40;84.70;;;;;;5013739;28;20037;-79
2023/03/20 05:52:36;;;;;;;4.22;3.05;;;9.40;84.80;;;;;;5009832;28;20037;-79
2023/03/20 05:55:02;;;;;;;4.47;2.83;;;9.30;84.80;;;;;;5006527;28;20060;-78
2023/03/20 05:57:27;;;;;;;3.00;2.65;;;9.40;84.90;;;;;;4985229;28;20042;-79
2023/03/20 05:59:53;;;;;;;4.20;2.90;;;9.40;84.80;;;;;;5000612;28;20029;-78
2023/03/20 06:02:18;;;;;;;3.47;2.60;;;9.40;84.80;;;;;;5018971;28;20033;-79
2023/03/20 06:04:44;;;;;;;3.85;3.08;;;9.40;84.70;;;;;;4993260;28;20734;-79
2023/03/20 06:07:10;;;;;;;7.65;3.33;;;9.40;84.70;;;;;;4988632;28;20033;-79
2023/03/20 06:09:35;;;;;;;5.90;3.65;;;9.40;84.70;;;;;;5004254;28;20057;-81
2023/03/20 06:12:01;;;;;;;5.35;3.50;;;9.40;84.70;;;;;;4989898;28;20124;-78
2023/03/20 06:14:26;;;;;;;9.07;4.10;;;9.40;84.90;;;;;;5016842;28;20026;-80
2023/03/20 06:16:52;;;;;;;6.50;3.13;;;9.40;85.00;;;;;;5021292;28;20045;-81
2023/03/20 06:19:19;;;;;;;3.75;2.42;;;9.50;85.10;;;;;;5035888;28;20093;-79
2023/03/20 06:21:45;;;;;;;8.50;4.03;;;9.50;85.00;;;;;;5021150;28;20040;-80
2023/03/20 06:24:10;;;;;;;7.07;3.95;;;9.50;84.80;;;;;;5006194;28;20112;-80
2023/03/20 06:26:36;;;;;;;4.28;2.72;;;9.50;84.80;;;;;;5006016;28;20037;-81
2023/03/20 06:29:02;;;;;;;4.65;2.30;;;9.50;84.80;;;;;;5004452;28;20030;-79
2023/03/20 06:31:27;;;;;;;6.93;4.43;;;9.50;84.60;;;;;;4994941;28;20565;-79
2023/03/20 06:33:53;;;;;;;9.20;5.72;;;9.50;84.60;;;;;;5007674;28;20091;-79
2023/03/20 06:36:18;;;;;;;7.78;4.72;;;9.50;84.60;;;;;;5026743;28;20124;-80
2023/03/20 06:38:44;;;;;;;7.47;4.10;;;9.50;84.80;;;;;;5016963;28;20048;-79
2023/03/20 06:41:10;;;;;;;4.70;3.90;;;9.50;84.80;;;;;;5030505;28;20945;-79
2023/03/20 06:43:36;;;;;;;4.55;2.83;;;9.60;84.90;;;;;;5031473;28;20041;-78
2023/03/20 06:46:01;;;;;;;4.80;3.75;;;9.60;85.00;;;;;;5031884;28;20428;-80
2023/03/20 06:48:27;;;;;;;6.70;2.97;;;9.60;84.90;;;;;;5021715;28;20037;-80
2023/03/20 06:50:52;;;;;;;5.93;4.25;;;9.60;84.80;;;;;;5014340;28;20037;-79
2023/03/20 06:53:18;;;;;;;8.95;4.75;;;9.60;84.80;;;;;;5027016;28;20048;-79
2023/03/20 06:55:50;;;;;;;3.65;2.83;;;9.70;84.90;;;;;;5022319;28;20036;-80
2023/03/20 06:58:16;;;;;;;8.43;5.00;;;9.70;84.90;;;;;;5025409;28;20130;-80
2023/03/20 07:00:41;;;;;;;5.88;3.67;;;9.70;84.80;;;;;;5011154;28;20528;-79
2023/03/20 07:03:07;;;;;;;6.60;4.20;;;9.70;84.90;;;;;;5006002;28;20052;-81
2023/03/20 07:05:33;;;;;;;5.60;4.25;;;9.70;85.00;;;;;;5018705;28;21610;-79
2023/03/20 07:07:59;;;;;;;6.80;4.07;;;9.80;85.10;;;;;;5010892;28;20047;-79
2023/03/20 07:10:24;;;;;;;4.40;3.78;;;9.80;85.10;;;;;;5037312;28;20038;-80
2023/03/20 07:12:50;;;;;;;7.13;3.47;;;9.80;85.10;;;;;;5033971;28;20064;-80
2023/03/20 07:15:16;;;;;;;8.73;3.83;;;9.80;85.10;;;;;;5001445;28;20044;-80
2023/03/20 07:17:42;;;;;;;4.95;3.85;;;9.90;85.10;;;;;;5039709;28;20037;-79
2023/03/20 07:20:09;;;;;;;7.63;4.50;;;9.90;85.00;;;;;;5037583;28;20037;-79
2023/03/20 07:22:35;;;;;;;6.38;4.63;;;9.90;85.00;;;;;;5019222;28;20440;-79
2023/03/20 07:25:00;;;;;;;5.20;3.88;;;10.00;85.10;;;;;;5035803;28;20918;-80
2023/03/20 07:27:26;;;;;;;4.70;3.90;;;10.00;85.10;;;;;;5002181;28;20044;-81
2023/03/20 07:29:51;;;;;;;13.38;7.20;;;10.00;85.00;;;;;;5018231;28;20040;-79
2023/03/20 07:32:17;;;;;;;38.17;18.40;;;10.00;84.90;;;;;;5031073;28;20111;-79
2023/03/20 07:34:43;;;;;;;15.82;8.50;;;10.00;85.00;;;;;;5039429;28;20116;-79
2023/03/20 07:37:09;;;;;;;17.40;9.25;;;10.10;85.10;;;;;;5026236;28;20076;-79
2023/03/20 07:39:34;;;;;;;17.95;8.85;;;10.10;85.10;;;;;;5022552;28;20549;-78
2023/03/20 07:42:00;;;;;;;11.35;7.20;;;10.10;85.10;;;;;;5020327;28;20052;-79
2023/03/20 07:44:25;;;;;;;8.55;5.57;;;10.20;85.10;;;;;;5017766;28;20029;-81
2023/03/20 07:46:51;;;;;;;9.57;6.50;;;10.20;85.10;;;;;;5039747;28;20033;-79
2023/03/20 07:49:17;;;;;;;11.73;7.43;;;10.20;85.00;;;;;;5038389;28;20044;-81
2023/03/20 07:51:43;;;;;;;9.18;6.43;;;10.30;84.90;;;;;;5040546;28;20356;-80
2023/03/20 07:54:09;;;;;;;6.85;5.43;;;10.30;85.10;;;;;;5022023;28;20049;-80
2023/03/20 07:56:34;;;;;;;8.13;5.72;;;10.30;85.00;;;;;;5023665;28;20036;-79
2023/03/20 07:59:00;;;;;;;8.75;5.65;;;10.30;85.00;;;;;;5023201;28;20145;-79
2023/03/20 08:01:25;;;;;;;7.45;5.75;;;10.30;85.00;;;;;;5040932;28;20057;-79
2023/03/20 08:03:51;;;;;;;8.00;5.78;;;10.40;85.00;;;;;;5034827;28;20120;-80
2023/03/20 08:06:16;;;;;;;17.27;8.68;;;10.30;84.90;;;;;;5022708;28;20112;-77
2023/03/20 08:08:43;;;;;;;26.75;12.48;;;10.30;84.90;;;;;;5040232;28;20131;-80
2023/03/20 08:11:09;;;;;;;13.02;7.10;;;10.40;84.90;;;;;;5018680;28;20041;-77
2023/03/20 08:13:35;;;;;;;11.68;7.45;;;10.40;84.90;;;;;;5039493;28;20043;-81
2023/03/20 08:16:00;;;;;;;6.72;4.97;;;10.40;85.00;;;;;;5026319;28;20063;-80
2023/03/20 08:18:26;;;;;;;7.57;5.25;;;10.40;84.80;;;;;;5037614;28;20488;-80
2023/03/20 08:20:51;;;;;;;8.15;5.20;;;10.50;84.90;;;;;;5021392;28;20519;-80
2023/03/20 08:23:17;;;;;;;10.15;5.47;;;10.50;84.80;;;;;;5021102;28;20617;-79
2023/03/20 08:25:50;;;;;;;8.65;6.10;;;10.50;84.80;;;;;;5039608;28;20041;-79
2023/03/20 08:28:16;;;;;;;9.15;5.97;;;10.60;85.00;;;;;;4996310;28;20044;-80
2023/03/20 08:30:41;;;;;;;9.55;6.40;;;10.60;84.80;;;;;;5022055;28;20428;-79
2023/03/20 08:33:07;;;;;;;9.60;6.43;;;10.60;84.80;;;;;;5016769;28;20029;-78
2023/03/20 08:35:32;;;;;;;10.13;6.53;;;10.60;84.70;;;;;;5035838;28;20653;-79
2023/03/20 08:37:58;;;;;;;10.98;6.85;;;10.70;84.70;;;;;;4992093;28;20393;-81
2023/03/20 08:40:23;;;;;;;8.60;6.32;;;10.80;84.70;;;;;;5005075;28;20029;-81
2023/03/20 08:42:49;;;;;;;7.65;5.65;;;10.80;84.60;;;;;;5008730;28;20045;-79
2023/03/20 08:45:15;;;;;;;13.30;8.10;;;10.80;84.60;;;;;;4988576;28;20120;-78
2023/03/20 08:47:41;;;;;;;10.98;6.93;;;10.90;84.40;;;;;;5003053;28;20116;-75
2023/03/20 08:50:08;;;;;;;9.77;6.25;;;10.90;84.40;;;;;;5003432;28;20125;-74
2023/03/20 08:52:33;;;;;;;7.55;5.50;;;11.00;84.30;;;;;;4977929;28;21133;-78
2023/03/20 08:54:59;;;;;;;9.75;6.57;;;11.00;84.30;;;;;;4983667;28;20037;-78
2023/03/20 08:57:25;;;;;;;11.48;6.80;;;11.00;84.10;;;;;;5006514;28;20029;-77
2023/03/20 08:59:50;;;;;;;14.27;8.20;;;11.10;84.20;;;;;;5003395;28;20729;-78
2023/03/20 09:02:16;;;;;;;12.35;7.63;;;11.10;84.10;;;;;;5016154;28;20067;-78
2023/03/20 09:04:41;;;;;;;11.50;6.97;;;11.10;84.10;;;;;;5016454;28;20036;-79
2023/03/20 09:07:07;;;;;;;12.73;6.75;;;11.20;84.10;;;;;;5019213;28;20109;-78
2023/03/20 09:09:33;;;;;;;12.00;6.72;;;11.20;84.00;;;;;;5016105;28;20036;-79
2023/03/20 09:11:58;;;;;;;13.38;8.32;;;11.20;84.00;;;;;;5012833;28;20084;-78
2023/03/20 09:14:24;;;;;;;11.40;7.22;;;11.20;83.90;;;;;;4983342;28;20112;-78
2023/03/20 09:16:50;;;;;;;14.43;8.20;;;11.30;83.90;;;;;;5015299;28;20497;-78
2023/03/20 09:19:16;;;;;;;12.27;8.57;;;11.30;83.80;;;;;;5014301;28;20049;-78
2023/03/20 09:21:41;;;;;;;12.23;7.40;;;11.40;83.80;;;;;;5016671;28;20524;-78
2023/03/20 09:24:07;;;;;;;10.90;6.78;;;11.40;84.60;;;;;;5021343;28;20033;-78
2023/03/20 09:26:33;;;;;;;12.65;7.35;;;11.40;83.70;;;;;;5036431;28;20037;-78
2023/03/20 09:28:58;;;;;;;12.07;8.18;;;11.40;83.60;;;;;;5020427;28;20101;-78
2023/03/20 09:31:24;;;;;;;12.02;7.15;;;11.50;83.60;;;;;;5003796;28;20052;-78
2023/03/20 09:33:49;;;;;;;13.18;7.22;;;11.50;83.50;;;;;;5015017;28;20041;-78
2023/03/20 09:36:15;;;;;;;14.38;8.57;;;11.50;83.50;;;;;;5027565;28;20105;-77
2023/03/20 09:38:41;;;;;;;11.77;7.18;;;11.50;83.40;;;;;;4978804;28;20102;-77
2023/03/20 09:41:11;;;;;;;11.52;7.20;;;11.60;83.40;;;;;;4998194;28;20103;-78
2023/03/20 09:44:04;;;;;;;12.45;8.63;;;11.60;83.40;;;;;;4965061;28;20074;-78
2023/03/20 09:47:07;;;;;;;11.13;7.20;;;11.60;83.40;;;;;;4994675;28;20030;-78
2023/03/20 09:49:58;;;;;;;12.32;7.22;;;11.70;83.40;;;;;;4992524;28;20034;-78
2023/03/20 09:52:31;;;;;;;14.10;8.43;;;11.80;83.30;;;;;;4996651;28;20037;-78
2023/03/20 09:54:59;;;;;;;12.00;7.90;;;11.80;83.20;;;;;;5017000;28;20060;-78
2023/03/20 09:57:26;;;;;;;14.45;8.45;;;11.80;83.10;;;;;;4997557;28;20029;-78
2023/03/20 09:59:56;;;;;;;13.18;7.28;;;11.90;83.00;;;;;;4985816;28;20042;-78
2023/03/20 10:02:44;;;;;;;12.80;7.18;;;11.90;82.90;;;;;;5003710;28;20045;-78
2023/03/20 10:05:21;;;;;;;14.30;7.63;;;11.90;82.90;;;;;;5021954;28;20037;-78
2023/03/20 10:07:46;;;;;;;10.43;6.68;;;12.00;82.80;;;;;;4992740;28;20048;-78
2023/03/20 10:10:13;;;;;;;13.00;8.73;;;12.00;82.70;;;;;;4998341;28;20054;-78
2023/03/20 10:12:52;;;;;;;14.82;9.02;;;12.00;82.70;;;;;;4988886;28;20072;-78
2023/03/20 10:15:36;;;;;;;13.57;8.23;;;12.00;82.60;;;;;;5016263;28;20044;-78
2023/03/20 10:18:25;;;;;;;13.10;8.25;;;12.00;82.70;;;;;;4988041;28;20033;-78
2023/03/20 10:21:00;;;;;;;15.73;7.72;;;12.10;82.70;;;;;;5024466;28;20037;-78
2023/03/20 10:23:34;;;;;;;14.18;9.07;;;12.10;82.60;;;;;;4997221;28;20797;-78
2023/03/20 10:26:05;;;;;;;14.60;8.15;;;12.10;82.50;;;;;;5004605;28;20046;-79
2023/03/20 10:28:35;;;;;;;13.45;8.40;;;12.20;82.60;;;;;;4997661;28;20034;-79
2023/03/20 10:31:13;;;;;;;15.85;9.70;;;12.20;82.40;;;;;;5004581;28;20046;-78
2023/03/20 10:34:12;;;;;;;16.83;9.57;;;12.20;82.30;;;;;;4993916;28;20045;-78
2023/03/20 10:36:50;;;;;;;14.98;8.77;;;12.30;82.30;;;;;;5011734;28;20068;-78
2023/03/20 10:39:28;;;;;;;16.75;9.32;;;12.30;82.20;;;;;;5021451;28;20582;-78
2023/03/20 10:41:55;;;;;;;12.32;8.20;;;12.40;82.10;;;;;;5039923;28;20043;-78
2023/03/20 10:44:36;;;;;;;16.88;8.18;;;12.40;82.00;;;;;;5009623;28;20059;-76
2023/03/20 10:47:02;;;;;;;16.08;7.95;;;12.40;82.00;;;;;;5018566;28;20785;-77
2023/03/20 10:49:37;;;;;;;14.30;7.93;;;12.50;81.90;;;;;;5024907;28;20047;-78
2023/03/20 10:52:05;;;;;;;15.00;9.02;;;12.50;81.80;;;;;;5023057;28;20041;-78
2023/03/20 10:54:33;;;;;;;15.30;8.93;;;12.50;81.70;;;;;;5024195;28;20037;-78
2023/03/20 10:56:59;;;;;;;15.05;8.15;;;12.50;81.70;;;;;;5043168;28;20039;-78
2023/03/20 10:59:25;;;;;;;14.82;8.65;;;12.60;81.80;;;;;;5011212;28;20052;-78
2023/03/20 11:01:51;;;;;;;13.02;7.10;;;12.60;81.70;;;;;;5040458;28;20036;-78
2023/03/20 11:04:17;;;;;;;13.35;7.35;;;12.60;81.60;;;;;;5008250;28;20133;-78
2023/03/20 11:06:54;;;;;;;10.75;6.72;;;12.70;81.60;;;;;;5041324;28;20052;-79
2023/03/20 11:09:21;;;;;;;15.10;7.65;;;12.70;81.40;;;;;;5037498;28;20053;-78
2023/03/20 11:11:47;;;;;;;12.13;7.90;;;12.80;81.30;;;;;;5042001;28;20533;-78
2023/03/20 11:14:21;;;;;;;14.70;8.73;;;12.80;81.30;;;;;;5038376;28;20087;-78
2023/03/20 11:16:54;;;;;;;20.17;11.20;;;12.90;81.40;;;;;;5044600;28;20060;-78
2023/03/20 11:19:20;;;;;;;14.35;8.07;;;13.00;81.10;;;;;;5024444;28;20033;-79
2023/03/20 11:21:49;;;;;;;14.23;7.97;;;13.00;80.90;;;;;;5013036;28;20034;-78
2023/03/20 11:24:41;;;;;;;11.00;7.60;;;13.10;80.90;;;;;;5055411;28;20037;-78
2023/03/20 11:27:11;;;;;;;10.65;5.90;;;13.20;80.80;;;;;;5022042;28;20037;-78
2023/03/20 11:29:36;;;;;;;7.75;4.70;;;13.30;80.70;;;;;;5039588;28;20036;-78
2023/03/20 11:32:07;;;;;;;5.22;4.20;;;13.30;80.40;;;;;;5020138;28;20675;-77
2023/03/20 11:34:35;;;;;;;4.05;3.25;;;13.40;80.10;;;;;;5033275;28;20044;-78
2023/03/20 11:37:01;;;;;;;6.00;3.58;;;13.40;79.90;;;;;;5008130;28;20067;-78
2023/03/20 11:39:28;;;;;;;5.97;3.50;;;13.50;79.70;;;;;;5018147;28;20416;-77
2023/03/20 11:41:55;;;;;;;5.10;3.50;;;13.50;79.60;;;;;;5000634;28;20036;-78
2023/03/20 11:44:35;;;;;;;6.65;2.88;;;13.50;79.30;;;;;;5032343;28;20118;-78
2023/03/20 11:47:05;;;;;;;8.02;5.07;;;13.60;79.00;;;;;;4999515;28;20049;-79
2023/03/20 11:49:31;;;;;;;6.57;4.72;;;13.60;78.90;;;;;;5022162;28;20066;-78
2023/03/20 11:52:20;;;;;;;6.65;4.63;;;13.60;78.80;;;;;;5032168;28;20052;-78
2023/03/20 11:54:48;;;;;;;5.80;4.65;;;13.60;78.80;;;;;;5031095;28;20313;-78
2023/03/20 11:57:36;;;;;;;5.40;3.78;;;13.60;78.60;;;;;;5033338;28;20041;-78
2023/03/20 12:00:21;;;;;;;5.90;4.30;;;13.60;78.40;;;;;;5029913;28;20032;-78
2023/03/20 12:02:46;;;;;;;5.35;3.78;;;13.70;78.40;;;;;;4993364;28;20115;-78
2023/03/20 12:05:31;;;;;;;5.15;3.67;;;13.70;78.40;;;;;;5038598;28;20057;-78
2023/03/20 12:08:02;;;;;;;4.57;3.58;;;13.70;78.20;;;;;;5021847;28;20033;-79
2023/03/20 12:10:38;;;;;;;4.18;2.70;;;13.70;78.10;;;;;;5017715;28;20048;-78
2023/03/20 12:13:09;;;;;;;4.07;2.90;;;13.70;78.00;;;;;;4999856;28;20041;-78
2023/03/20 12:15:37;;;;;;;3.45;2.67;;;13.70;78.00;;;;;;5000457;28;20040;-78
2023/03/20 12:18:15;;;;;;;3.80;2.65;;;13.70;77.90;;;;;;5029846;28;20175;-78
2023/03/20 12:20:59;;;;;;;3.10;2.50;;;13.70;77.80;;;;;;5037789;28;20083;-78
2023/03/20 12:23:34;;;;;;;3.53;2.28;;;13.70;77.60;;;;;;5039424;28;20092;-78
2023/03/20 12:26:08;;;;;;;2.72;2.17;;;13.70;77.60;;;;;;5019213;28;20029;-78
2023/03/20 12:28:56;;;;;;;4.55;2.10;;;13.70;77.60;;;;;;5005934;28;20076;-78
2023/03/20 12:31:36;;;;;;;4.10;2.30;;;13.70;77.40;;;;;;5031399;28;20048;-78
2023/03/20 12:34:21;;;;;;;3.78;2.88;;;13.80;77.50;;;;;;5058140;28;20036;-78
2023/03/20 12:36:48;;;;;;;5.55;3.08;;;13.70;77.30;;;;;;5042007;28;20040;-79
2023/03/20 12:39:18;;;;;;;4.30;3.05;;;13.70;77.40;;;;;;5003153;28;20050;-79
2023/03/20 12:41:50;;;;;;;3.67;2.97;;;13.70;77.40;;;;;;5017249;28;20036;-78
2023/03/20 12:44:18;;;;;;;;;;;13.60;77.40;;;;;;5018341;28;21237;-78
2023/03/20 12:46:50;;;;;;;2.88;2.22;;;13.70;77.50;;;;;;5026601;28;20007;-78
2023/03/20 12:49:22;;;;;;;4.72;3.15;;;13.70;77.50;;;;;;5029685;28;20044;-79
2023/03/20 12:52:09;;;;;;;4.65;3.13;;;13.80;77.40;;;;;;5024896;28;20563;-78
2023/03/20 12:55:00;;;;;;;5.53;3.78;;;13.80;77.00;;;;;;5052713;28;20075;-77
2023/03/20 12:57:42;;;;;;;5.43;3.40;;;13.80;76.70;;;;;;5040674;28;20044;-78
2023/03/20 13:00:15;;;;;;;;;;;13.90;76.80;;;;;;5040464;28;20125;-79
2023/03/20 13:02:49;;;;;;;6.70;4.55;;;13.80;76.80;;;;;;5015823;28;19943;-78